createdAt,value
2022-11-07T00:03:24.199Z,4.33
2022-11-07T00:12:49.990Z,4.38
2022-11-07T00:18:10.889Z,4.39
2022-11-07T00:23:39.368Z,4.36
2022-11-07T00:30:26.624Z,4.32
2022-11-07T00:33:45.150Z,4.27
2022-11-07T00:36:58.955Z,4.25
2022-11-07T00:44:58.849Z,4.27
2022-11-07T00:51:44.274Z,4.17
2022-11-07T01:14:09.256Z,4.19
2022-11-07T01:17:43.468Z,4.16
2022-11-07T01:21:46.885Z,4.18
2022-11-07T01:25:31.346Z,4.17
2022-11-07T01:28:25.621Z,4.17
2022-11-07T01:31:32.174Z,4.15
2022-11-07T01:34:53.861Z,4.14
2022-11-07T01:37:53.232Z,4.09
2022-11-07T01:41:27.478Z,4.05
2022-11-07T01:48:39.312Z,3.95
2022-11-07T01:56:34.010Z,3.84
2022-11-07T02:06:22.553Z,3.61
2022-11-07T02:19:59.888Z,3.57
2022-11-07T02:23:28.486Z,3.53
2022-11-07T02:35:51.475Z,3.44
2022-11-07T02:43:07.564Z,3.46
2022-11-07T02:53:27.148Z,3.45
2022-11-07T02:56:38.341Z,3.45
2022-11-07T02:59:44.592Z,3.46
2022-11-07T03:02:40.332Z,3.48
2022-11-07T03:09:25.824Z,3.43
2022-11-07T03:12:26.938Z,3.42
2022-11-07T03:16:09.595Z,3.41
2022-11-07T03:22:01.935Z,3.39
2022-11-07T03:24:41.417Z,3.37
2022-11-07T03:31:14.140Z,3.35
2022-11-07T03:49:05.585Z,3.58
2022-11-07T03:52:27.370Z,3.63
2022-11-07T03:55:18.281Z,3.67
2022-11-07T04:09:55.413Z,3.73
2022-11-07T04:15:08.907Z,3.76
2022-11-07T04:19:04.679Z,3.79
2022-11-07T04:22:34.583Z,3.80
2022-11-07T04:26:03.353Z,3.85
2022-11-07T04:29:52.230Z,3.92
2022-11-07T04:33:07.936Z,3.95
2022-11-07T04:36:11.700Z,3.96
2022-11-07T04:39:28.938Z,3.95
2022-11-07T04:42:41.778Z,3.93
2022-11-07T04:49:02.706Z,3.96
2022-11-07T04:52:14.643Z,4.00
2022-11-07T04:55:25.297Z,4.04
2022-11-07T04:59:38.164Z,4.01
2022-11-07T05:02:43.138Z,3.92
2022-11-07T05:06:24.661Z,3.92
2022-11-07T05:09:39.970Z,3.92
2022-11-07T05:14:05.339Z,3.90
2022-11-07T05:16:23.150Z,3.86
2022-11-07T05:20:20.906Z,3.84
2022-11-07T05:23:42.153Z,3.85
2022-11-07T05:26:48.872Z,3.87
2022-11-07T05:30:22.707Z,3.93
2022-11-07T05:33:41.707Z,3.95
2022-11-07T05:37:04.487Z,3.94
2022-11-07T06:02:05.158Z,4.07
2022-11-07T06:05:03.522Z,4.11
2022-11-07T06:08:14.327Z,4.16
2022-11-07T06:11:22.313Z,4.21
2022-11-07T06:14:21.270Z,4.25
2022-11-07T06:17:04.727Z,4.31
2022-11-07T06:20:27.459Z,4.36
2022-11-07T06:23:45.602Z,4.41
2022-11-07T06:28:18.658Z,4.46
2022-11-07T06:31:03.453Z,4.48
2022-11-07T06:34:29.687Z,4.52
2022-11-07T06:37:45.582Z,4.57
2022-11-07T07:00:53.675Z,5.13
2022-11-07T07:03:42.543Z,5.22
2022-11-07T07:08:29.543Z,5.29
2022-11-07T07:10:20.692Z,5.33
2022-11-07T07:14:39.218Z,5.40
2022-11-07T07:16:45.135Z,5.45
2022-11-07T07:20:11.383Z,5.50
2022-11-07T07:26:50.491Z,5.55
2022-11-07T07:30:34.276Z,5.57
2022-11-07T07:33:56.360Z,5.59
2022-11-07T07:37:32.761Z,5.61
2022-11-07T07:44:54.990Z,5.79
2022-11-07T07:48:48.923Z,5.96
2022-11-07T08:12:21.562Z,6.92
2022-11-07T08:38:26.630Z,7.62
2022-11-07T08:41:22.117Z,7.74
2022-11-07T08:44:26.128Z,7.89
2022-11-07T08:47:34.881Z,8.05
2022-11-07T08:50:41.958Z,8.13
2022-11-07T08:53:44.984Z,8.23
2022-11-07T09:04:35.451Z,8.72
2022-11-07T09:08:18.764Z,8.91
2022-11-07T09:12:01.044Z,9.16
2022-11-07T09:15:39.170Z,9.43
2022-11-07T09:19:14.237Z,9.62
2022-11-07T09:22:40.374Z,9.83
2022-11-07T09:29:51.766Z,10.35
2022-11-07T09:33:39.309Z,10.44
2022-11-07T09:37:46.802Z,10.50
2022-11-07T09:45:34.062Z,10.62
2022-11-07T09:49:10.117Z,10.75
2022-11-07T09:56:11.063Z,10.76
2022-11-07T10:00:27.679Z,10.78
2022-11-07T10:20:43.297Z,10.78
2022-11-07T10:24:11.993Z,10.82
2022-11-07T10:27:58.537Z,10.84
2022-11-07T10:44:39.754Z,11.01
2022-11-07T10:49:25.296Z,11.12
2022-11-07T10:51:42.022Z,11.32
2022-11-07T11:02:03.287Z,12.05
2022-11-07T11:06:04.872Z,12.01
2022-11-07T11:08:56.387Z,11.91
2022-11-07T11:12:21.769Z,11.78
2022-11-07T11:23:40.525Z,11.50
2022-11-07T11:26:24.173Z,11.50
2022-11-07T11:33:28.238Z,11.57
2022-11-07T12:08:41.705Z,10.84
2022-11-07T12:11:27.285Z,10.83
2022-11-07T12:14:30.272Z,10.86
2022-11-07T12:17:06.331Z,10.89
2022-11-07T12:20:02.840Z,10.98
2022-11-07T12:22:56.287Z,11.04
2022-11-07T12:25:59.125Z,11.06
2022-11-07T12:28:45.820Z,11.08
2022-11-07T12:32:01.970Z,11.11
2022-11-07T12:35:14.274Z,11.13
2022-11-07T12:38:16.929Z,11.12
2022-11-07T12:41:25.222Z,11.09
2022-11-07T12:44:00.471Z,11.09
2022-11-07T12:46:59.095Z,11.14
2022-11-07T12:49:57.681Z,11.14
2022-11-07T12:52:47.891Z,11.18
2022-11-07T12:55:42.176Z,11.20
2022-11-07T12:58:28.149Z,11.18
2022-11-07T13:00:58.713Z,11.18
2022-11-07T13:03:54.005Z,11.21
2022-11-07T13:06:39.638Z,11.24
2022-11-07T13:09:37.681Z,11.25
2022-11-07T13:12:27.107Z,11.25
2022-11-07T13:14:57.265Z,11.25
2022-11-07T13:17:37.779Z,11.27
2022-11-07T13:20:30.036Z,11.29
2022-11-07T13:23:01.455Z,11.28
2022-11-07T13:25:33.049Z,11.18
2022-11-07T13:28:25.554Z,11.16
2022-11-07T13:31:02.302Z,11.20
2022-11-07T13:33:37.400Z,11.22
2022-11-07T13:36:27.369Z,11.23
2022-11-07T13:39:00.426Z,11.21
2022-11-07T13:41:29.454Z,11.22
2022-11-07T13:44:04.121Z,11.23
2022-11-07T13:46:48.039Z,11.23
2022-11-07T13:49:44.948Z,11.22
2022-11-07T13:52:37.530Z,11.19
2022-11-07T13:55:20.705Z,11.16
2022-11-07T13:58:03.555Z,11.12
2022-11-07T14:00:34.740Z,11.09
2022-11-07T14:03:04.026Z,11.07
2022-11-07T14:05:36.759Z,11.05
2022-11-07T14:08:28.062Z,11.04
2022-11-07T14:10:57.523Z,11.03
2022-11-07T14:13:41.230Z,11.04
2022-11-07T14:16:26.639Z,11.03
2022-11-07T14:19:04.034Z,11.02
2022-11-07T14:21:36.955Z,11.03
2022-11-07T14:24:27.041Z,11.03
2022-11-07T14:27:00.495Z,11.02
2022-11-07T14:29:29.847Z,11.02
2022-11-07T14:32:05.912Z,11.01
2022-11-07T14:34:36.500Z,10.99
2022-11-07T14:37:07.015Z,10.98
2022-11-07T14:39:36.628Z,10.94
2022-11-07T14:42:05.780Z,10.89
2022-11-07T14:44:56.077Z,10.84
2022-11-07T14:47:32.507Z,10.80
2022-11-07T14:50:03.146Z,10.77
2022-11-07T14:52:42.433Z,10.77
2022-11-07T14:55:28.236Z,10.76
2022-11-07T14:58:05.327Z,10.75
2022-11-07T15:00:35.219Z,10.73
2022-11-07T15:03:04.644Z,10.73
2022-11-07T15:05:39.347Z,10.71
2022-11-07T15:08:30.501Z,10.68
2022-11-07T15:11:15.168Z,10.64
2022-11-07T15:13:47.982Z,10.60
2022-11-07T15:16:23.034Z,10.57
2022-11-07T15:19:01.667Z,10.52
2022-11-07T15:21:38.274Z,10.45
2022-11-07T15:24:35.427Z,10.37
2022-11-07T15:27:21.645Z,10.29
2022-11-07T15:30:00.952Z,10.23
2022-11-07T15:32:37.716Z,10.19
2022-11-07T15:35:42.915Z,10.16
2022-11-07T15:38:27.860Z,10.09
2022-11-07T15:40:56.918Z,10.03
2022-11-07T15:43:25.795Z,9.99
2022-11-07T15:45:56.285Z,9.95
2022-11-07T15:48:36.917Z,9.91
2022-11-07T15:51:09.753Z,9.85
2022-11-07T15:53:38.647Z,9.77
2022-11-07T15:56:10.534Z,9.70
2022-11-07T15:58:39.356Z,9.63
2022-11-07T16:01:08.976Z,9.49
2022-11-07T16:03:38.023Z,9.49
2022-11-07T16:06:27.219Z,9.49
2022-11-07T16:08:56.644Z,9.46
2022-11-07T16:11:25.651Z,9.43
2022-11-07T16:14:14.814Z,9.42
2022-11-07T16:16:47.655Z,9.42
2022-11-07T16:19:24.726Z,9.44
2022-11-07T16:21:53.683Z,9.43
2022-11-07T16:24:22.977Z,9.44
2022-11-07T16:26:52.552Z,9.43
2022-11-07T16:29:27.176Z,9.38
2022-11-07T16:31:56.299Z,9.32
2022-11-07T16:34:25.511Z,9.30
2022-11-07T16:36:55.014Z,9.30
2022-11-07T16:39:24.121Z,9.28
2022-11-07T16:41:52.986Z,9.27
2022-11-07T16:44:26.353Z,9.22
2022-11-07T16:46:56.792Z,9.22
2022-11-07T16:49:33.855Z,9.23
2022-11-07T16:52:03.764Z,9.23
2022-11-07T16:54:32.673Z,9.21
2022-11-07T16:57:01.849Z,9.21
2022-11-07T16:59:30.802Z,9.22
2022-11-07T17:01:59.952Z,9.21
2022-11-07T17:04:28.928Z,9.18
2022-11-07T17:06:57.830Z,9.17
2022-11-07T17:09:28.063Z,9.15
2022-11-07T17:11:56.886Z,9.12
2022-11-07T17:14:25.837Z,9.10
2022-11-07T17:16:55.113Z,9.10
2022-11-07T17:19:27.641Z,9.10
2022-11-07T17:21:56.628Z,9.10
2022-11-07T17:24:25.532Z,9.10
2022-11-07T17:26:54.625Z,9.09
2022-11-07T17:29:24.078Z,9.10
2022-11-07T17:31:56.756Z,9.12
2022-11-07T17:34:28.260Z,9.13
2022-11-07T17:37:02.232Z,9.15
2022-11-07T17:39:35.088Z,9.17
2022-11-07T17:42:04.956Z,9.18
2022-11-07T17:44:37.087Z,9.19
2022-11-07T17:47:06.423Z,9.21
2022-11-07T17:49:38.267Z,9.23
2022-11-07T17:52:07.161Z,9.25
2022-11-07T17:54:36.072Z,9.25
2022-11-07T17:57:08.993Z,9.24
2022-11-07T17:59:40.960Z,9.27
2022-11-07T18:02:20.314Z,9.30
2022-11-07T18:04:49.555Z,9.35
2022-11-07T18:07:19.077Z,9.38
2022-11-07T18:09:49.566Z,9.40
2022-11-07T18:12:18.800Z,9.42
2022-11-07T18:14:48.185Z,9.44
2022-11-07T18:17:17.461Z,9.44
2022-11-07T18:19:48.327Z,9.45
2022-11-07T18:22:17.440Z,9.49
2022-11-07T18:24:47.280Z,9.51
2022-11-07T18:27:16.170Z,9.52
2022-11-07T18:29:45.089Z,9.51
2022-11-07T18:32:13.999Z,9.50
2022-11-07T18:34:42.931Z,9.51
2022-11-07T18:37:11.869Z,9.52
2022-11-07T18:39:40.766Z,9.52
2022-11-07T18:42:09.616Z,9.50
2022-11-07T18:44:54.115Z,9.49
2022-11-07T18:47:24.916Z,9.45
2022-11-07T18:49:57.662Z,9.47
2022-11-07T18:52:28.209Z,9.51
2022-11-07T18:54:57.982Z,9.51
2022-11-07T18:57:27.156Z,9.54
2022-11-07T18:59:56.053Z,9.56
2022-11-07T19:02:25.159Z,9.57
2022-11-07T19:04:54.149Z,9.57
2022-11-07T19:07:23.545Z,9.59
2022-11-07T19:09:52.396Z,9.60
2022-11-07T19:12:21.321Z,9.61
2022-11-07T19:14:50.106Z,9.62
2022-11-07T19:17:18.888Z,9.64
2022-11-07T19:19:47.680Z,9.68
2022-11-07T19:22:17.236Z,9.69
2022-11-07T19:24:46.757Z,9.68
2022-11-07T19:27:15.562Z,9.64
2022-11-07T19:29:44.660Z,9.60
2022-11-07T19:32:14.233Z,9.56
2022-11-07T19:34:43.168Z,9.53
2022-11-07T19:37:12.174Z,9.49
2022-11-07T19:39:41.161Z,9.45
2022-11-07T19:42:10.556Z,9.41
2022-11-07T19:44:44.864Z,9.37
2022-11-07T19:47:17.762Z,9.33
2022-11-07T19:49:46.855Z,9.30
2022-11-07T19:52:15.744Z,9.28
2022-11-07T19:59:55.189Z,9.13
2022-11-07T20:02:34.439Z,9.12
2022-11-07T20:05:07.006Z,9.17
2022-11-07T20:07:37.102Z,9.19
2022-11-07T20:10:08.756Z,9.21
2022-11-07T20:12:37.855Z,9.26
2022-11-07T20:15:07.927Z,9.29
2022-11-07T20:17:36.874Z,9.31
2022-11-07T20:20:13.180Z,9.34
2022-11-07T20:22:47.591Z,9.34
2022-11-07T20:25:17.097Z,9.34
2022-11-07T20:27:46.119Z,9.34
2022-11-07T20:30:15.555Z,9.34
2022-11-07T20:32:47.644Z,9.33
2022-11-07T20:35:16.851Z,9.31
2022-11-07T20:37:45.899Z,9.27
2022-11-07T20:40:15.089Z,9.25
2022-11-07T20:42:44.052Z,9.20
2022-11-07T20:45:13.460Z,9.17
2022-11-07T20:47:42.333Z,9.13
2022-11-07T20:50:58.751Z,9.08
2022-11-07T20:53:55.045Z,8.98
2022-11-07T20:56:25.778Z,8.97
2022-11-07T20:58:55.350Z,8.97
2022-11-07T21:01:35.829Z,8.97
2022-11-07T21:04:14.166Z,8.96
2022-11-07T21:09:35.392Z,8.87
2022-11-07T21:12:04.376Z,8.75
2022-11-07T21:14:33.298Z,8.72
2022-11-07T21:17:03.360Z,8.74
2022-11-07T21:19:32.444Z,8.76
2022-11-07T21:22:01.339Z,8.78
2022-11-07T21:24:31.781Z,8.81
2022-11-07T21:27:00.756Z,8.80
2022-11-07T21:29:30.061Z,8.80
2022-11-07T21:31:58.980Z,8.83
2022-11-07T21:34:28.250Z,8.86
2022-11-07T21:37:01.847Z,8.89
2022-11-07T21:39:30.996Z,8.91
2022-11-07T21:41:59.966Z,8.94
2022-11-07T21:44:28.840Z,8.96
2022-11-07T21:46:57.743Z,8.99
2022-11-07T21:49:27.263Z,9.01
2022-11-07T21:51:57.142Z,9.03
2022-11-07T21:54:25.986Z,9.06
2022-11-07T21:56:55.395Z,9.10
2022-11-07T21:59:24.965Z,9.14
2022-11-07T22:01:55.270Z,9.17
2022-11-07T22:04:24.319Z,9.19
2022-11-07T22:06:53.278Z,9.22
2022-11-07T22:09:22.743Z,9.25
2022-11-07T22:11:51.797Z,9.29
2022-11-07T22:14:22.951Z,9.31
2022-11-07T22:16:54.948Z,9.33
2022-11-07T22:19:25.374Z,9.34
2022-11-07T22:21:54.230Z,9.25
2022-11-07T22:24:26.114Z,9.26
2022-11-07T22:26:55.840Z,9.31
2022-11-07T22:29:24.827Z,9.28
2022-11-07T22:31:53.779Z,9.33
2022-11-07T22:34:22.899Z,9.40
2022-11-07T22:36:51.795Z,9.46
2022-11-07T22:39:21.185Z,9.50
2022-11-07T22:41:50.059Z,9.55
2022-11-07T22:44:18.919Z,9.59
2022-11-07T22:46:47.864Z,9.62
2022-11-07T22:49:16.737Z,9.67
2022-11-07T22:51:45.646Z,9.70
2022-11-07T22:54:14.596Z,9.72
2022-11-07T22:56:43.477Z,9.75
2022-11-07T22:59:12.932Z,9.74
2022-11-07T23:01:43.778Z,9.74
2022-11-07T23:04:15.566Z,9.73
2022-11-07T23:06:45.456Z,9.73
2022-11-07T23:09:16.814Z,9.74
2022-11-07T23:11:47.696Z,9.74
2022-11-07T23:14:21.518Z,9.75
2022-11-07T23:16:53.003Z,9.77
2022-11-07T23:19:25.251Z,9.77
2022-11-07T23:21:56.553Z,9.77
2022-11-07T23:24:25.790Z,9.75
2022-11-07T23:26:54.637Z,9.75
2022-11-07T23:29:25.460Z,9.77
2022-11-07T23:31:54.544Z,9.78
2022-11-07T23:34:23.537Z,9.81
2022-11-07T23:36:52.702Z,9.84
2022-11-07T23:39:23.307Z,9.83
2022-11-07T23:41:52.262Z,9.83
2022-11-07T23:44:21.681Z,9.84
2022-11-07T23:47:09.049Z,9.85
2022-11-07T23:49:56.395Z,9.82
2022-11-07T23:52:25.328Z,9.81
2022-11-07T23:55:12.659Z,9.81
2022-11-07T23:58:00.009Z,9.82
